»·PEaware :: N5268J KSBD-KEMT

N5268J :: KSBD-KEMT

FLIGHT INFORMATION

Flight Status: Arrived
Operator: Privately registered:
United States
More flights under this callsign
Pilot: John P. (31881)
Aircraft: BEECH AIRCRAFT BONANZA
(BE36)
More flights by this aircraft type
Origin: KSBD San Bernardino Intl
United States
Destination: KEMT El Monte
United States
More flights between these airports :: More routes between these airports
Route: SBD ONT EMT
File this flight plan on PilotEdge
Remarks:
Altitude:
(Current/Filed)
4,500ft
Speed:
(Current/Filed)
167kts
Departed: 18-Oct-20 11:10 AM
Arrived: 18-Oct-20 11:40 AM
Distance/Time
Traveled:
40nm/0:30
Distance/Time
To Go:
Arrived

Flight Plot

Page will automatically refresh every two minutes.

Flight plan parsing failed; only flown route is shown


Map Options




Map Legend


Flown Route
Filed Route
Departure Airport
Arrival Airport
Navaid (VOR, NDB)
Fix

Horizontal Profiles

Position Reports

Time Latitude Longitude Heading Altitude Ground
Speed
18-Oct-20 10:51 34.101325 -117.228278 16 1143ft 0kts
18-Oct-20 10:52 34.101325 -117.228278 16 1143ft 0kts
18-Oct-20 10:53 34.101325 -117.228278 16 1143ft 0kts
18-Oct-20 10:54 34.101325 -117.228278 16 1143ft 0kts
18-Oct-20 10:55 34.101325 -117.228278 16 1143ft 0kts
18-Oct-20 10:56 34.101325 -117.228278 16 1143ft 0kts
18-Oct-20 10:57 34.101325 -117.228278 16 1143ft 0kts
18-Oct-20 10:58 34.101325 -117.228278 16 1143ft 0kts
18-Oct-20 10:59 34.101325 -117.228278 16 1143ft 0kts
18-Oct-20 11:00 34.101325 -117.228278 16 1143ft 0kts
18-Oct-20 11:01 34.101563 -117.228153 40 1144ft 5kts
18-Oct-20 11:02 34.100993 -117.230028 286 1137ft 19kts
18-Oct-20 11:03 34.101881 -117.236091 284 1121ft 26kts
18-Oct-20 11:04 34.100511 -117.239409 150 1114ft 24kts
18-Oct-20 11:05 34.096168 -117.238413 250 1117ft 24kts
18-Oct-20 11:06 34.092328 -117.250905 210 1087ft 28kts
18-Oct-20 11:07 34.091637 -117.250861 155 1085ft 0kts
18-Oct-20 11:08 34.091251 -117.248893 70 1091ft 27kts
18-Oct-20 11:09 34.099013 -117.221516 72 1457ft 118kts
18-Oct-20 11:10 34.105585 -117.183532 114 2347ft 140kts
18-Oct-20 11:11 34.123030 -117.176648 251 2326ft 163kts
18-Oct-20 11:12 34.108101 -117.226982 250 2400ft 161kts
18-Oct-20 11:13 34.095314 -117.279571 264 2410ft 165kts
18-Oct-20 11:14 34.094463 -117.331041 269 2413ft 147kts
18-Oct-20 11:15 34.094046 -117.380132 269 2410ft 146kts
18-Oct-20 11:16 34.093566 -117.429177 269 2411ft 146kts
18-Oct-20 11:18 34.106936 -117.465422 8 2425ft 151kts
18-Oct-20 11:19 34.124805 -117.430494 104 2411ft 155kts
18-Oct-20 11:20 34.114539 -117.380324 104 2408ft 155kts
18-Oct-20 11:21 34.111254 -117.364421 105 2406ft 155kts
18-Oct-20 11:22 34.088440 -117.366202 284 2417ft 140kts
18-Oct-20 11:23 34.093798 -117.410178 270 2409ft 126kts
18-Oct-20 11:24 34.093406 -117.451996 268 2407ft 123kts
18-Oct-20 11:25 34.092942 -117.489656 268 2409ft 123kts
18-Oct-20 11:26 34.092453 -117.535852 268 2407ft 155kts
18-Oct-20 11:27 34.092026 -117.573188 268 3808ft 99kts
18-Oct-20 11:28 34.091645 -117.608641 268 4373ft 124kts
18-Oct-20 11:29 34.090976 -117.658058 265 4406ft 159kts
18-Oct-20 11:30 34.080580 -117.710739 255 4412ft 163kts
18-Oct-20 11:31 34.087033 -117.763896 278 4412ft 164kts
18-Oct-20 11:32 34.089153 -117.818984 268 4412ft 164kts
18-Oct-20 11:33 34.088342 -117.871874 268 4412ft 142kts
18-Oct-20 11:33 34.087805 -117.910326 268 3712ft 147kts
18-Oct-20 11:35 34.086981 -117.968390 268 2582ft 147kts
18-Oct-20 11:36 34.086326 -118.016106 273 1842ft 148kts
18-Oct-20 11:36 34.098832 -118.051840 264 1830ft 141kts
18-Oct-20 11:38 34.097599 -118.056228 38 1828ft 147kts
18-Oct-20 11:38 34.114082 -118.029463 122 1395ft 113kts
18-Oct-20 11:40 34.085359 -118.034731 160 292ft 0kts
18-Oct-20 11:40 34.085360 -118.034731 160 292ft 0kts
18-Oct-20 11:42 34.084495 -118.033316 71 291ft 0kts
18-Oct-20 11:42 34.084495 -118.033316 71 291ft 0kts

Navigation Log

Ident Type
Flight plan parsing failed, navigation log unavailable